Time;durP1;ratioP1;P1;durP2;ratioP2;P2;SDS_P1;SDS_P2;PMS_P1;PMS_P2;Temp;Humidity;BMP_temperature;BMP_pressure;BME280_temperature;BME280_humidity;BME280_pressure;Samples;Min_cycle;Max_cycle;Signal;HPM_P1;HPM_P2
2023/08/23 00:00:49;;;;;;;7.07;5.07;;;;;;;16.55;100.00;101716.09;4990431;28;20551;-52
2023/08/23 00:03:15;;;;;;;6.82;5.75;;;;;;;16.68;100.00;101719.94;4978846;28;20227;-50
2023/08/23 00:05:43;;;;;;;7.18;5.50;;;;;;;16.75;100.00;101717.81;4971816;28;20193;-50
2023/08/23 00:08:08;;;;;;;6.55;5.45;;;;;;;16.76;100.00;101714.13;4990901;28;20186;-50
2023/08/23 00:10:34;;;;;;;12.02;6.65;;;;;;;16.48;100.00;101711.91;4988637;28;20665;-51
2023/08/23 00:13:00;;;;;;;11.07;7.05;;;;;;;16.44;100.00;101713.91;4971867;28;20186;-49
2023/08/23 00:15:25;;;;;;;8.63;6.93;;;;;;;16.28;100.00;101713.75;4991275;28;20197;-50
2023/08/23 00:17:51;;;;;;;14.35;8.05;;;;;;;16.20;100.00;101707.88;4991806;28;20190;-52
2023/08/23 00:20:16;;;;;;;18.70;9.48;;;;;;;16.10;100.00;101709.25;4989454;28;20286;-50
2023/08/23 00:22:42;;;;;;;20.02;13.98;;;;;;;16.21;100.00;101711.44;4977330;28;20178;-50
2023/08/23 00:25:08;;;;;;;12.90;9.38;;;;;;;16.15;100.00;101717.13;4973258;28;20200;-51
2023/08/23 00:27:34;;;;;;;19.77;10.73;;;;;;;16.17;100.00;101715.22;4990799;28;20196;-50
2023/08/23 00:29:59;;;;;;;11.85;9.25;;;;;;;16.33;100.00;101718.06;4980706;28;20206;-50
2023/08/23 00:32:26;;;;;;;15.23;9.90;;;;;;;16.30;100.00;101721.81;4989434;28;20186;-51
2023/08/23 00:34:52;;;;;;;13.73;9.88;;;;;;;16.28;100.00;101727.28;4988705;28;20304;-52
2023/08/23 00:37:17;;;;;;;14.75;10.10;;;;;;;16.30;100.00;101726.34;4980306;28;20197;-51
2023/08/23 00:39:43;;;;;;;10.57;8.32;;;;;;;16.38;100.00;101729.56;4999310;28;20284;-51
2023/08/23 00:42:10;;;;;;;17.02;12.35;;;;;;;16.31;100.00;101729.00;4997965;28;20587;-49
2023/08/23 00:44:35;;;;;;;18.00;12.70;;;;;;;16.28;100.00;101721.88;4983041;28;20190;-50
2023/08/23 00:47:01;;;;;;;14.43;9.30;;;;;;;16.38;100.00;101725.03;4981411;28;20245;-50
2023/08/23 00:49:33;;;;;;;14.65;9.85;;;;;;;16.35;100.00;101730.56;4983913;28;20268;-51
2023/08/23 00:52:04;;;;;;;15.52;10.43;;;;;;;16.24;100.00;101730.22;4995198;28;20182;-50
2023/08/23 00:54:30;;;;;;;16.23;10.15;;;;;;;16.18;100.00;101723.28;4974617;28;20795;-51
2023/08/23 00:56:59;;;;;;;15.82;9.70;;;;;;;16.16;100.00;101736.00;4988485;28;20295;-50
2023/08/23 00:59:24;;;;;;;11.95;9.20;;;;;;;16.16;100.00;101735.09;4994315;28;20201;-50
2023/08/23 01:01:50;;;;;;;21.27;10.38;;;;;;;16.06;100.00;101730.13;4993912;28;20189;-51
2023/08/23 01:04:16;;;;;;;16.70;10.20;;;;;;;16.08;100.00;101734.59;4980047;28;20197;-51
2023/08/23 01:06:56;;;;;;;14.70;10.85;;;;;;;16.18;100.00;101722.38;4996666;28;20220;-50
2023/08/23 01:09:57;;;;;;;23.40;12.65;;;;;;;16.11;100.00;101743.44;4998545;28;20608;-51
2023/08/23 01:12:35;;;;;;;15.20;10.32;;;;;;;16.04;100.00;101737.44;4979097;28;20193;-52
2023/08/23 01:15:06;;;;;;;15.52;10.30;;;;;;;16.08;100.00;101737.31;4994539;28;20209;-53
2023/08/23 01:17:32;;;;;;;15.68;10.48;;;;;;;16.02;100.00;101733.91;4976802;28;20213;-50
2023/08/23 01:19:59;;;;;;;20.70;13.02;;;;;;;15.86;100.00;101725.66;4981796;28;20206;-49
2023/08/23 01:22:29;;;;;;;15.90;12.35;;;;;;;15.84;100.00;101724.84;4973924;28;20196;-50
2023/08/23 01:24:55;;;;;;;19.38;13.10;;;;;;;15.74;100.00;101720.81;4992624;28;20244;-50
2023/08/23 01:27:21;;;;;;;17.02;11.90;;;;;;;15.81;100.00;101716.03;4984081;28;20268;-51
2023/08/23 01:29:47;;;;;;;20.80;12.38;;;;;;;15.80;100.00;101720.53;4993715;28;20232;-49
2023/08/23 01:32:13;;;;;;;18.65;12.90;;;;;;;15.72;100.00;101719.13;4981646;28;20268;-51
2023/08/23 01:34:46;;;;;;;19.90;13.43;;;;;;;15.59;100.00;101725.06;4996169;28;20205;-51
2023/08/23 01:37:14;;;;;;;22.40;14.05;;;;;;;15.59;100.00;101725.06;4995045;28;20188;-51
2023/08/23 01:39:41;;;;;;;22.73;15.82;;;;;;;15.64;100.00;101722.16;4994398;28;20775;-51
2023/08/23 01:42:09;;;;;;;21.50;13.95;;;;;;;15.58;100.00;101719.72;4995323;28;20232;-49
2023/08/23 01:44:35;;;;;;;27.17;18.58;;;;;;;15.60;100.00;101717.81;4983685;28;20205;-51
2023/08/23 01:47:00;;;;;;;30.58;17.88;;;;;;;15.60;100.00;101723.22;4976637;28;20197;-48
2023/08/23 01:49:26;;;;;;;26.42;18.48;;;;;;;15.59;100.00;101727.75;4982374;28;20300;-49
2023/08/23 01:51:51;;;;;;;21.02;13.43;;;;;;;15.69;100.00;101721.94;4994026;28;20188;-51
2023/08/23 01:54:17;;;;;;;19.98;12.82;;;;;;;15.79;100.00;101720.63;4988574;28;20210;-51
2023/08/23 01:56:43;;;;;;;20.45;13.15;;;;;;;15.66;100.00;101723.81;4992395;28;20182;-49
2023/08/23 01:59:08;;;;;;;21.23;13.68;;;;;;;15.65;100.00;101719.38;4976489;28;20204;-51
2023/08/23 02:01:34;;;;;;;15.93;12.50;;;;;;;15.60;100.00;101720.53;4977751;28;20193;-52
2023/08/23 02:04:00;;;;;;;14.32;11.27;;;;;;;15.79;100.00;101728.72;4998059;28;20186;-49
2023/08/23 02:06:25;;;;;;;16.75;12.50;;;;;;;15.76;100.00;101724.31;4983938;28;20207;-50
2023/08/23 02:08:50;;;;;;;22.95;13.80;;;;;;;15.38;100.00;101718.78;4982164;28;20236;-51
2023/08/23 02:11:16;;;;;;;22.17;13.65;;;;;;;15.31;100.00;101717.31;4978020;28;20173;-50
2023/08/23 02:13:42;;;;;;;18.73;12.05;;;;;;;15.50;100.00;101724.56;4981444;28;20293;-48
2023/08/23 02:16:07;;;;;;;28.88;16.85;;;;;;;15.47;100.00;101730.13;4990732;28;20194;-52
2023/08/23 02:18:33;;;;;;;20.15;14.13;;;;;;;15.58;100.00;101734.09;4978682;28;20206;-50
2023/08/23 02:20:59;;;;;;;22.95;15.35;;;;;;;15.68;100.00;101741.78;4993081;28;20210;-50
2023/08/23 02:23:25;;;;;;;23.65;17.08;;;;;;;15.69;100.00;101739.03;4983683;28;20201;-52
2023/08/23 02:25:52;;;;;;;21.40;15.80;;;;;;;15.72;100.00;101748.84;4977213;28;20178;-52
2023/08/23 02:28:18;;;;;;;18.90;15.13;;;;;;;15.75;100.00;101746.00;4996354;28;20216;-52
2023/08/23 02:30:44;;;;;;;25.35;16.58;;;;;;;15.82;100.00;101744.78;4990589;28;20182;-49
2023/08/23 02:33:10;;;;;;;33.75;19.25;;;;;;;15.80;100.00;101741.28;4992473;28;20189;-48
2023/08/23 02:35:40;;;;;;;23.70;16.75;;;;;;;15.88;100.00;101744.50;4977466;28;20204;-52
2023/08/23 02:38:08;;;;;;;22.13;16.70;;;;;;;15.93;100.00;101738.88;4991936;28;20170;-51
2023/08/23 02:40:34;;;;;;;25.58;18.00;;;;;;;15.91;100.00;101738.06;4989419;28;20262;-51
2023/08/23 02:43:00;;;;;;;24.10;18.33;;;;;;;15.87;100.00;101737.31;4981235;28;20188;-50
2023/08/23 02:45:25;;;;;;;28.63;18.85;;;;;;;15.89;100.00;101732.72;4991569;28;20174;-51
2023/08/23 02:47:51;;;;;;;31.10;20.15;;;;;;;15.91;100.00;101729.97;4984573;28;20185;-49
2023/08/23 02:50:17;;;;;;;22.95;16.67;;;;;;;15.98;100.00;101735.03;4991653;28;20218;-48
2023/08/23 02:52:43;;;;;;;23.45;18.02;;;;;;;16.06;100.00;101737.38;4994813;28;20181;-52
2023/08/23 02:55:08;;;;;;;29.50;19.67;;;;;;;16.01;100.00;101737.59;4971628;28;20281;-51
2023/08/23 02:57:34;;;;;;;26.35;19.58;;;;;;;16.03;100.00;101732.13;4979629;28;20267;-50
2023/08/23 02:59:59;;;;;;;26.70;18.63;;;;;;;16.06;100.00;101743.63;4991047;28;20209;-50
2023/08/23 03:02:25;;;;;;;25.70;18.65;;;;;;;16.06;100.00;101738.22;4973242;28;20178;-52
2023/08/23 03:04:50;;;;;;;30.25;19.23;;;;;;;16.08;100.00;101738.16;4976831;28;20301;-51
2023/08/23 03:07:16;;;;;;;30.35;21.40;;;;;;;16.06;100.00;101727.41;4974767;28;20177;-52
2023/08/23 03:09:42;;;;;;;25.90;19.30;;;;;;;15.94;100.00;101728.00;4980983;28;20189;-51
2023/08/23 03:12:08;;;;;;;28.92;19.05;;;;;;;15.94;100.00;101732.50;4981816;28;20178;-51
2023/08/23 03:14:33;;;;;;;34.10;21.33;;;;;;;15.89;100.00;101731.88;4990543;28;20189;-52
2023/08/23 03:16:59;;;;;;;30.90;19.88;;;;;;;15.88;100.00;101728.28;4991199;28;20169;-51
2023/08/23 03:19:24;;;;;;;30.33;20.98;;;;;;;15.92;100.00;101731.72;4980399;28;20216;-52
2023/08/23 03:21:50;;;;;;;27.48;17.85;;;;;;;16.01;100.00;101743.00;4990161;28;20227;-52
2023/08/23 03:24:16;;;;;;;30.25;20.65;;;;;;;15.94;100.00;101733.41;4974154;28;20188;-51
2023/08/23 03:26:42;;;;;;;30.67;20.75;;;;;;;15.90;100.00;101729.09;4975531;28;20205;-51
2023/08/23 03:29:07;;;;;;;19.83;16.13;;;;;;;15.96;100.00;101714.41;4990249;28;20208;-53
2023/08/23 03:31:33;;;;;;;25.73;18.90;;;;;;;15.94;100.00;101738.81;4979727;28;20282;-50
2023/08/23 03:33:58;;;;;;;29.77;18.02;;;;;;;16.00;100.00;101730.41;4990888;28;20190;-52
2023/08/23 03:36:25;;;;;;;22.23;15.45;;;;;;;16.05;100.00;101732.91;4987772;28;20182;-50
2023/08/23 03:38:51;;;;;;;24.30;17.35;;;;;;;16.08;100.00;101718.38;4981345;28;20209;-52
2023/08/23 03:41:16;;;;;;;21.42;15.48;;;;;;;16.13;100.00;101729.84;4978203;28;20205;-51
2023/08/23 03:43:42;;;;;;;18.77;13.48;;;;;;;16.19;100.00;101721.44;4976618;28;20177;-52
2023/08/23 03:46:08;;;;;;;27.83;17.77;;;;;;;16.11;100.00;101737.16;4971023;28;20196;-52
2023/08/23 03:48:33;;;;;;;20.70;14.98;;;;;;;16.16;100.00;101730.59;4985519;28;20209;-50
2023/08/23 03:50:59;;;;;;;22.63;15.95;;;;;;;16.14;100.00;101731.63;4990770;28;20251;-52
2023/08/23 03:53:29;;;;;;;21.52;14.23;;;;;;;16.19;100.00;101734.97;4952519;28;20181;-51
2023/08/23 03:55:55;;;;;;;21.77;15.85;;;;;;;16.16;100.00;101729.69;4975843;28;20212;-50
2023/08/23 03:58:21;;;;;;;15.85;11.82;;;;;;;16.20;100.00;101725.88;4973485;28;20173;-51
2023/08/23 04:00:52;;;;;;;20.25;15.10;;;;;;;16.10;100.00;101732.69;4980587;28;20236;-50
2023/08/23 04:03:17;;;;;;;19.35;15.02;;;;;;;16.02;100.00;101733.03;4980469;28;20186;-52
2023/08/23 04:05:43;;;;;;;13.38;10.70;;;;;;;16.13;100.00;101727.13;4985822;28;20237;-52
2023/08/23 04:08:09;;;;;;;18.42;12.93;;;;;;;16.13;100.00;101722.59;4993460;28;20185;-52
2023/08/23 04:10:35;;;;;;;18.25;13.93;;;;;;;16.12;100.00;101731.69;4991995;28;20226;-51
2023/08/23 04:13:00;;;;;;;20.90;13.77;;;;;;;16.02;100.00;101722.22;4977321;28;20173;-50
2023/08/23 04:15:27;;;;;;;20.60;12.95;;;;;;;16.04;100.00;101725.75;4994741;28;20221;-52
2023/08/23 04:17:52;;;;;;;18.42;13.25;;;;;;;15.94;100.00;101725.31;4987436;28;20181;-52
2023/08/23 04:20:18;;;;;;;15.50;12.00;;;;;;;15.97;100.00;101730.56;4990436;28;20190;-52
2023/08/23 04:22:43;;;;;;;18.58;11.50;;;;;;;15.95;100.00;101728.88;4993555;28;20636;-48
2023/08/23 04:25:11;;;;;;;18.85;13.15;;;;;;;15.88;100.00;101730.13;4973736;28;20174;-48
2023/08/23 04:27:36;;;;;;;12.90;10.45;;;;;;;15.96;100.00;101733.31;4991110;28;20236;-50
2023/08/23 04:30:06;;;;;;;14.68;12.30;;;;;;;15.98;100.00;101736.84;4977074;28;20229;-52
2023/08/23 04:32:32;;;;;;;13.75;9.57;;;;;;;16.05;100.00;101732.91;4975716;28;20352;-51
2023/08/23 04:34:58;;;;;;;18.27;11.52;;;;;;;16.03;100.00;101735.69;4987848;28;20680;-50
2023/08/23 04:37:24;;;;;;;15.95;10.70;;;;;;;16.07;100.00;101736.44;4971736;28;20253;-50
2023/08/23 04:39:50;;;;;;;18.52;11.43;;;;;;;16.07;100.00;101736.44;4985678;28;20197;-52
2023/08/23 04:42:15;;;;;;;15.27;11.13;;;;;;;16.14;100.00;101745.13;4982300;28;20182;-50
2023/08/23 04:44:41;;;;;;;11.45;8.50;;;;;;;16.18;100.00;101727.78;4996761;28;20189;-51
2023/08/23 04:47:06;;;;;;;16.95;10.68;;;;;;;16.19;100.00;101725.03;4991337;28;20200;-50
2023/08/23 04:49:33;;;;;;;17.33;11.18;;;;;;;16.18;100.00;101744.00;4978415;28;20198;-51
2023/08/23 04:51:58;;;;;;;17.63;10.65;;;;;;;16.17;100.00;101736.88;4977624;28;20185;-50
2023/08/23 04:54:24;;;;;;;14.60;10.18;;;;;;;16.23;100.00;101737.44;4978010;28;20198;-52
2023/08/23 04:56:50;;;;;;;16.35;11.13;;;;;;;16.21;100.00;101738.47;4985564;28;20220;-48
2023/08/23 04:59:16;;;;;;;16.20;10.00;;;;;;;16.27;100.00;101732.78;4996216;28;20211;-50
2023/08/23 05:01:41;;;;;;;17.27;10.13;;;;;;;16.27;100.00;101730.94;4980656;28;20189;-52
2023/08/23 05:04:07;;;;;;;15.55;10.60;;;;;;;16.24;100.00;101743.72;4973192;28;20557;-51
2023/08/23 05:06:35;;;;;;;17.38;10.52;;;;;;;16.16;100.00;101738.69;4975763;28;20192;-50
2023/08/23 05:09:01;;;;;;;16.02;10.18;;;;;;;16.18;100.00;101736.81;4988354;28;20202;-48
2023/08/23 05:11:27;;;;;;;15.77;10.48;;;;;;;16.22;100.00;101734.81;4966961;28;20181;-50
2023/08/23 05:13:52;;;;;;;15.43;10.18;;;;;;;16.23;100.00;101732.03;4992747;28;20185;-53
2023/08/23 05:16:19;;;;;;;14.77;10.05;;;;;;;16.40;100.00;101728.53;4967698;28;20273;-50
2023/08/23 05:18:45;;;;;;;15.20;10.50;;;;;;;16.64;100.00;101736.41;4983467;28;20212;-52
2023/08/23 05:21:11;;;;;;;19.40;10.82;;;;;;;16.76;100.00;101735.78;4989498;28;20302;-52
2023/08/23 05:23:36;;;;;;;11.63;9.43;;;;;;;17.02;100.00;101739.06;4994292;28;20324;-50
2023/08/23 05:26:02;;;;;;;11.88;8.88;;;;;;;17.24;100.00;101737.00;4990591;28;20228;-51
2023/08/23 05:28:28;;;;;;;17.38;10.23;;;;;;;17.22;100.00;101738.91;4974310;28;20583;-51
2023/08/23 05:30:54;;;;;;;15.65;8.68;;;;;;;17.27;100.00;101736.84;4980681;28;20182;-53
2023/08/23 05:33:26;;;;;;;10.77;8.30;;;;;;;17.50;100.00;101732.06;4979302;28;20292;-52
2023/08/23 05:35:52;;;;;;;14.85;8.20;;;;;;;17.69;100.00;101724.69;4969726;28;20282;-50
2023/08/23 05:38:19;;;;;;;11.55;7.90;;;;;;;17.81;100.00;101725.00;4992226;28;20205;-49
2023/08/23 05:40:45;;;;;;;8.73;6.18;;;;;;;18.07;100.00;101721.75;4980052;28;20189;-48
2023/08/23 05:43:12;;;;;;;16.52;7.57;;;;;;;17.98;100.00;101716.84;4982687;28;20254;-52
2023/08/23 05:45:38;;;;;;;12.63;6.25;;;;;;;18.35;100.00;101712.06;4970784;28;20984;-50
2023/08/23 05:48:04;;;;;;;10.25;6.13;;;;;;;18.78;100.00;101712.31;4988435;28;20243;-49
2023/08/23 05:50:29;;;;;;;9.60;4.65;;;;;;;19.14;100.00;101705.69;4975002;28;20201;-49
2023/08/23 05:52:55;;;;;;;7.10;5.13;;;;;;;19.37;100.00;101714.25;4965835;28;20179;-53
2023/08/23 05:55:20;;;;;;;8.05;4.25;;;;;;;19.50;100.00;101705.28;4988941;28;20198;-46
2023/08/23 05:57:46;;;;;;;12.27;4.35;;;;;;;19.82;100.00;101696.09;4988321;28;20208;-48
2023/08/23 06:00:13;;;;;;;12.05;4.82;;;;;;;19.85;100.00;101695.91;4988684;28;20220;-51
2023/08/23 06:02:39;;;;;;;7.63;5.40;;;;;;;19.89;100.00;101695.59;4984262;28;20837;-48
2023/08/23 06:05:06;;;;;;;8.27;4.38;;;;;;;19.84;100.00;101686.88;4984422;28;20249;-49
2023/08/23 06:07:32;;;;;;;7.28;4.43;;;;;;;19.93;100.00;101702.59;4985728;28;20268;-47
2023/08/23 06:09:57;;;;;;;7.43;3.67;;;;;;;20.10;100.00;101700.66;4982892;28;20202;-47
2023/08/23 06:12:27;;;;;;;7.05;3.78;;;;;;;20.60;100.00;101701.03;4984639;28;20217;-50
2023/08/23 06:14:53;;;;;;;7.30;3.60;;;;;;;20.44;100.00;101691.16;4974879;28;20264;-48
2023/08/23 06:17:19;;;;;;;7.72;3.20;;;;;;;20.10;100.00;101695.22;4980966;28;20174;-48
2023/08/23 06:19:44;;;;;;;8.35;3.00;;;;;;;20.53;100.00;101689.66;4984177;28;20209;-47
2023/08/23 06:22:10;;;;;;;5.65;2.80;;;;;;;20.13;100.00;101689.56;4985113;28;20202;-48
2023/08/23 06:24:35;;;;;;;7.45;3.33;;;;;;;20.40;100.00;101695.06;4986690;28;20186;-52
2023/08/23 06:27:01;;;;;;;5.55;3.00;;;;;;;20.45;100.00;101692.91;4981923;28;20279;-46
2023/08/23 06:29:27;;;;;;;8.70;3.30;;;;;;;20.68;99.07;101685.94;4987234;28;20212;-49
2023/08/23 06:31:53;;;;;;;8.63;3.38;;;;;;;20.66;97.75;101692.47;4988333;28;20236;-47
2023/08/23 06:34:18;;;;;;;6.22;2.85;;;;;;;20.73;96.47;101686.53;4983310;28;20244;-50
2023/08/23 06:36:44;;;;;;;8.40;2.97;;;;;;;20.71;95.54;101690.34;4987477;28;20185;-50
2023/08/23 06:39:10;;;;;;;4.80;2.35;;;;;;;20.93;96.48;101685.16;4987440;28;20649;-48
2023/08/23 06:41:36;;;;;;;4.93;2.58;;;;;;;;;;4981606;28;20195;-47
2023/08/23 06:44:02;;;;;;;7.80;3.65;;;;;;;20.17;93.68;101681.09;4985636;28;20209;-47
2023/08/23 06:46:28;;;;;;;6.53;3.00;;;;;;;20.13;95.01;101700.44;4984752;28;20180;-49
2023/08/23 06:48:55;;;;;;;6.13;2.60;;;;;;;19.88;96.12;101709.31;4972638;28;20209;-49
2023/08/23 06:51:21;;;;;;;7.97;2.80;;;;;;;19.79;98.01;101699.00;4987761;28;20232;-51
2023/08/23 06:53:47;;;;;;;12.05;9.10;;;;;;;19.61;98.00;101706.44;4983284;28;20189;-50
2023/08/23 06:56:13;;;;;;;11.43;8.90;;;;;;;19.31;98.89;101710.97;4988367;28;20209;-50
2023/08/23 06:58:39;;;;;;;11.13;6.53;;;;;;;19.58;99.50;101717.53;4986890;28;20228;-48
2023/08/23 07:01:14;;;;;;;8.15;4.60;;;;;;;20.07;98.53;101699.00;4989116;28;20192;-52
2023/08/23 07:03:41;;;;;;;7.57;3.15;;;;;;;20.56;97.46;101697.66;4987949;28;20187;-50
2023/08/23 07:06:06;;;;;;;6.70;2.90;;;;;;;20.93;95.22;101687.03;4955638;28;20190;-50
2023/08/23 07:08:32;;;;;;;4.13;2.53;;;;;;;20.88;92.84;101684.63;4989353;28;20208;-47
2023/08/23 07:10:58;;;;;;;4.03;2.22;;;;;;;20.40;91.63;101684.19;4986605;28;20189;-49
2023/08/23 07:13:24;;;;;;;5.85;2.50;;;;;;;20.20;91.04;101682.75;4987941;28;20181;-48
2023/08/23 07:15:49;;;;;;;8.98;2.63;;;;;;;20.24;91.86;101683.44;4984976;28;20224;-51
2023/08/23 07:18:15;;;;;;;5.45;2.63;;;;;;;20.90;91.83;101684.50;4987298;28;20185;-49
2023/08/23 07:20:40;;;;;;;4.68;2.30;;;;;;;21.05;90.52;101679.84;4988059;28;20200;-50
2023/08/23 07:23:07;;;;;;;6.32;2.33;;;;;;;21.20;87.76;101673.34;4984634;28;20181;-47
2023/08/23 07:25:32;;;;;;;8.85;2.90;;;;;;;20.68;87.21;101672.31;4987866;28;20188;-49
2023/08/23 07:27:58;;;;;;;5.93;2.55;;;;;;;21.07;87.79;101681.47;4988954;28;20193;-49
2023/08/23 07:30:23;;;;;;;7.10;3.30;;;;;;;20.83;86.72;101670.41;4985221;28;20201;-51
2023/08/23 07:32:49;;;;;;;5.63;2.33;;;;;;;21.23;87.15;101675.88;4986911;28;20188;-52
2023/08/23 07:35:14;;;;;;;6.03;2.60;;;;;;;21.20;87.22;101676.06;4990325;28;20638;-51
2023/08/23 07:37:40;;;;;;;6.28;2.80;;;;;;;20.69;86.38;101673.22;4989516;28;20372;-48
2023/08/23 07:40:07;;;;;;;5.57;2.50;;;;;;;21.90;85.27;101672.06;4987138;28;20627;-51
2023/08/23 07:42:32;;;;;;;7.70;2.30;;;;;;;22.49;82.84;101663.19;4990532;28;20196;-46
2023/08/23 07:44:59;;;;;;;5.50;2.22;;;;;;;21.94;80.72;101659.94;4987676;28;20177;-47
2023/08/23 07:47:24;;;;;;;3.50;1.80;;;;;;;21.71;79.55;101657.03;4983473;28;20233;-48
2023/08/23 07:49:51;;;;;;;5.13;2.17;;;;;;;22.12;80.24;101657.72;4987017;28;20197;-52
2023/08/23 07:52:17;;;;;;;5.50;2.22;;;;;;;21.08;79.56;101660.56;4989582;28;20699;-49
2023/08/23 07:54:42;;;;;;;3.35;1.42;;;;;;;21.35;79.40;101661.34;4991519;28;20204;-50
2023/08/23 07:57:08;;;;;;;4.13;1.45;;;;;;;21.13;79.60;101662.00;4985588;28;20189;-50
2023/08/23 07:59:33;;;;;;;4.15;1.20;;;;;;;22.21;78.06;101663.38;4990111;28;20362;-47
2023/08/23 08:02:00;;;;;;;4.82;1.33;;;;;;;22.14;76.89;101653.88;4974695;28;20181;-50
2023/08/23 08:04:26;;;;;;;4.28;1.80;;;;;;;22.24;76.07;101647.75;4984778;28;20201;-48
2023/08/23 08:06:51;;;;;;;4.13;1.60;;;;;;;22.22;74.69;101636.97;4973073;28;20220;-50
2023/08/23 08:09:17;;;;;;;2.92;1.33;;;;;;;22.37;75.22;101654.06;4987832;28;20215;-47
2023/08/23 08:11:43;;;;;;;3.10;1.50;;;;;;;22.90;73.47;101640.03;4992269;28;20203;-46
2023/08/23 08:14:08;;;;;;;3.53;1.63;;;;;;;22.89;71.75;101633.69;4974042;28;20261;-48
2023/08/23 08:16:34;;;;;;;3.38;1.67;;;;;;;23.02;71.91;101644.56;4990853;28;20474;-49
2023/08/23 08:18:59;;;;;;;3.65;1.77;;;;;;;22.65;73.23;101669.22;4980140;28;20196;-45
2023/08/23 08:21:25;;;;;;;5.43;1.90;;;;;;;23.06;72.63;101667.94;4988559;28;20213;-47
2023/08/23 08:23:50;;;;;;;2.80;1.38;;;;;;;23.17;71.22;101653.44;4988552;28;20667;-51
2023/08/23 08:26:16;;;;;;;4.82;1.60;;;;;;;22.63;71.65;101660.31;4990585;28;20521;-48
2023/08/23 08:28:44;;;;;;;3.20;1.40;;;;;;;22.05;72.05;101656.44;4988993;28;20205;-48
2023/08/23 08:31:10;;;;;;;3.72;1.20;;;;;;;22.46;72.08;101668.91;4972006;28;20193;-48
2023/08/23 08:33:38;;;;;;;5.03;1.17;;;;;;;21.95;72.46;101675.31;4993490;28;20195;-47
2023/08/23 08:36:04;;;;;;;3.05;1.20;;;;;;;22.37;73.06;101684.13;4989871;28;20215;-49
2023/08/23 08:38:29;;;;;;;3.03;1.38;;;;;;;23.01;71.53;101670.16;4981822;28;20209;-50
2023/08/23 08:40:55;;;;;;;2.70;1.40;;;;;;;22.61;70.91;101667.75;4985847;28;20169;-46
2023/08/23 08:43:20;;;;;;;3.10;1.23;;;;;;;21.56;72.93;101674.50;4989630;28;20182;-48
2023/08/23 08:45:46;;;;;;;6.43;1.70;;;;;;;21.82;74.40;101694.44;4992012;28;20201;-49
2023/08/23 08:48:12;;;;;;;4.13;1.30;;;;;;;21.95;74.01;101687.13;4984899;28;20181;-52
2023/08/23 08:50:41;;;;;;;2.38;1.08;;;;;;;21.42;75.13;101682.78;4973523;28;20193;-50
2023/08/23 08:53:11;;;;;;;3.03;1.33;;;;;;;21.19;76.58;101704.31;4991071;28;20198;-50
2023/08/23 08:55:37;;;;;;;4.10;1.17;;;;;;;21.98;75.81;101699.66;4989478;28;20257;-47
2023/08/23 08:58:05;;;;;;;3.10;1.25;;;;;;;21.71;74.99;101691.59;4994254;28;20188;-48
2023/08/23 09:00:32;;;;;;;2.25;1.33;;;;;;;21.80;74.97;101689.09;4993855;28;20750;-49
2023/08/23 09:02:59;;;;;;;5.97;1.50;;;;;;;22.17;74.64;101693.72;4990957;28;20282;-47
2023/08/23 09:05:25;;;;;;;4.47;1.45;;;;;;;22.52;73.47;101688.44;4985989;28;20177;-46
2023/08/23 09:07:52;;;;;;;2.90;1.48;;;;;;;22.36;72.60;101674.16;4995239;28;20180;-49
2023/08/23 09:10:17;;;;;;;5.72;1.50;;;;;;;22.26;72.54;101678.56;4991825;28;20708;-50
2023/08/23 09:12:43;;;;;;;2.70;1.40;;;;;;;22.50;70.93;101675.84;4986426;28;20242;-46
2023/08/23 09:15:09;;;;;;;2.85;1.05;;;;;;;22.91;70.54;101680.03;4979753;28;20204;-47
2023/08/23 09:17:36;;;;;;;3.03;1.17;;;;;;;23.56;69.20;101656.75;4993830;28;20203;-49
2023/08/23 09:20:08;;;;;;;2.70;1.45;;;;;;;23.25;68.12;101648.25;4991882;28;20259;-48
2023/08/23 09:22:35;;;;;;;3.08;1.27;;;;;;;23.90;66.50;101634.88;4990925;28;20181;-46
2023/08/23 09:25:02;;;;;;;4.13;1.27;;;;;;;23.60;66.71;101644.56;4989211;28;20252;-49
2023/08/23 09:27:27;;;;;;;1.95;1.00;;;;;;;23.48;66.17;101629.13;4984958;28;20292;-48
2023/08/23 09:29:54;;;;;;;3.05;1.23;;;;;;;23.46;66.26;101637.44;4985950;28;20232;-52
2023/08/23 09:32:20;;;;;;;3.35;1.38;;;;;;;23.88;65.46;101617.72;4985366;28;20217;-49
2023/08/23 09:34:46;;;;;;;4.43;1.23;;;;;;;23.60;64.46;101618.06;4991109;28;20700;-51
2023/08/23 09:37:11;;;;;;;4.82;1.48;;;;;;;22.96;65.49;101628.63;4993698;28;20192;-49
2023/08/23 09:39:37;;;;;;;3.95;1.00;;;;;;;24.06;65.50;101632.63;4985129;28;20204;-47
2023/08/23 09:42:05;;;;;;;2.90;1.15;;;;;;;23.74;65.41;101616.06;4988929;28;20197;-48
2023/08/23 09:44:43;;;;;;;2.75;1.20;;;;;;;23.73;65.02;101620.69;4972524;28;20699;-52
2023/08/23 09:47:14;;;;;;;6.07;1.52;;;;;;;23.03;65.97;101619.00;4988053;28;20177;-48
2023/08/23 09:49:42;;;;;;;3.55;1.15;;;;;;;23.62;66.53;101632.50;4986603;28;20560;-48
2023/08/23 09:52:09;;;;;;;2.47;1.23;;;;;;;24.13;65.64;101624.78;4992182;28;20217;-46
2023/08/23 09:54:44;;;;;;;2.90;1.08;;;;;;;23.66;64.67;101622.19;4982899;28;20196;-51
2023/08/23 09:57:10;;;;;;;4.65;1.20;;;;;;;23.41;64.39;101596.78;4985765;28;20243;-46
2023/08/23 09:59:36;;;;;;;3.53;1.20;;;;;;;22.82;66.12;101621.50;4991824;28;20299;-51
2023/08/23 10:02:05;;;;;;;4.18;1.15;;;;;;;22.66;67.55;101632.75;4972422;28;20192;-48
2023/08/23 10:04:32;;;;;;;4.38;1.40;;;;;;;22.87;67.69;101635.69;4975592;28;20196;-49
2023/08/23 10:06:58;;;;;;;3.45;1.10;;;;;;;22.94;66.94;101628.75;4991591;28;20306;-50
2023/08/23 10:09:23;;;;;;;2.45;1.00;;;;;;;22.96;66.93;101623.19;4990923;28;20208;-47
2023/08/23 10:11:50;;;;;;;2.58;1.10;;;;;;;22.83;66.75;101621.38;4991643;28;20594;-45
2023/08/23 10:14:17;;;;;;;4.05;1.25;;;;;;;22.72;67.46;101628.66;4990428;28;20181;-49
2023/08/23 10:16:44;;;;;;;3.70;1.10;;;;;;;22.77;67.85;101621.84;4991695;28;20201;-47
2023/08/23 10:19:10;;;;;;;2.38;1.15;;;;;;;22.66;68.33;101629.16;4973581;28;20213;-47
2023/08/23 10:21:36;;;;;;;3.78;1.35;;;;;;;22.76;68.11;101632.88;4989551;28;20209;-48
2023/08/23 10:24:05;;;;;;;4.03;1.60;;;;;;;22.78;67.72;101628.19;4988353;28;20193;-47
2023/08/23 10:26:44;;;;;;;3.25;1.25;;;;;;;23.10;67.85;101631.19;4983399;28;20204;-50
2023/08/23 10:29:10;;;;;;;4.55;1.00;;;;;;;23.13;67.13;101624.59;4990979;28;20228;-46
2023/08/23 10:31:35;;;;;;;3.65;1.27;;;;;;;22.60;67.83;101623.13;4989227;28;20189;-48
2023/08/23 10:34:01;;;;;;;2.65;1.30;;;;;;;22.65;67.61;101614.59;4992272;28;20284;-46
2023/08/23 10:36:29;;;;;;;5.43;1.30;;;;;;;22.66;67.76;101626.41;4979957;28;20236;-49
2023/08/23 10:38:56;;;;;;;2.00;1.08;;;;;;;22.19;68.72;101634.44;4989934;28;20738;-45
2023/08/23 10:41:25;;;;;;;3.03;1.20;;;;;;;22.41;69.47;101644.63;4989315;28;20266;-45
2023/08/23 10:43:52;;;;;;;2.88;1.42;;;;;;;22.90;69.96;101653.72;4983082;28;20599;-46
2023/08/23 10:46:21;;;;;;;4.53;1.23;;;;;;;22.86;68.66;101635.81;4985314;28;20177;-46
2023/08/23 10:48:47;;;;;;;1.83;1.08;;;;;;;23.27;67.81;101631.72;4985584;28;20216;-49
2023/08/23 10:51:14;;;;;;;4.03;1.52;;;;;;;22.49;68.08;101630.44;4992244;28;20219;-51
2023/08/23 10:53:41;;;;;;;2.65;1.13;;;;;;;23.02;67.35;101615.41;4989867;28;20267;-46
2023/08/23 10:56:07;;;;;;;3.10;1.45;;;;;;;22.73;68.08;101619.47;4995583;28;20224;-49
2023/08/23 10:58:33;;;;;;;1.58;1.02;;;;;;;22.30;68.09;101622.75;4991469;28;20207;-49
2023/08/23 11:00:59;;;;;;;4.35;1.30;;;;;;;22.21;69.09;101621.53;4990313;28;20244;-50
2023/08/23 11:03:28;;;;;;;4.88;1.40;;;;;;;22.45;68.36;101613.38;4989985;28;20205;-51
2023/08/23 11:05:54;;;;;;;3.38;1.00;;;;;;;22.89;67.50;101610.97;4990680;28;20267;-49
2023/08/23 11:08:21;;;;;;;5.70;1.35;;;;;;;22.54;68.01;101607.25;4987558;28;20244;-51
2023/08/23 11:10:48;;;;;;;4.18;1.35;;;;;;;22.40;69.20;101627.41;4986901;28;20212;-50